createdAt,value
2022-09-06T00:01:17.109Z,2.37
2022-09-06T00:03:45.253Z,2.50
2022-09-06T00:06:14.541Z,2.50
2022-09-06T00:08:44.873Z,2.20
2022-09-06T00:11:13.385Z,2.50
2022-09-06T00:13:41.701Z,2.90
2022-09-06T00:16:14.750Z,3.00
2022-09-06T00:18:43.190Z,2.80
2022-09-06T00:21:17.336Z,2.63
2022-09-06T00:23:44.961Z,2.83
2022-09-06T00:26:13.532Z,2.90
2022-09-06T00:28:41.738Z,2.97
2022-09-06T00:31:12.526Z,2.97
2022-09-06T00:33:40.996Z,3.30
2022-09-06T00:36:09.508Z,3.20
2022-09-06T00:38:37.675Z,2.63
2022-09-06T00:41:06.533Z,2.37
2022-09-06T00:43:34.515Z,2.53
2022-09-06T00:46:03.434Z,3.43
2022-09-06T00:48:33.432Z,3.47
2022-09-06T00:51:04.310Z,3.17
2022-09-06T00:53:32.998Z,2.83
2022-09-06T00:56:00.801Z,3.60
2022-09-06T00:58:29.456Z,2.83
2022-09-06T01:00:57.451Z,3.77
2022-09-06T01:03:26.991Z,2.33
2022-09-06T01:06:05.201Z,2.37
2022-09-06T01:08:50.535Z,3.17
2022-09-06T01:11:33.781Z,2.67
2022-09-06T01:14:11.588Z,1.90
2022-09-06T01:16:44.669Z,1.93
2022-09-06T01:19:40.972Z,1.97
2022-09-06T01:22:27.686Z,2.17
2022-09-06T01:25:05.864Z,2.30
2022-09-06T01:28:03.734Z,2.90
2022-09-06T01:30:35.161Z,1.77
2022-09-06T01:33:11.590Z,1.80
2022-09-06T01:35:46.310Z,1.47
2022-09-06T01:38:15.756Z,1.93
2022-09-06T01:40:43.445Z,1.80
2022-09-06T01:43:19.283Z,1.53
2022-09-06T01:46:01.393Z,1.53
2022-09-06T01:48:41.239Z,2.20
2022-09-06T01:51:18.649Z,2.10
2022-09-06T01:53:59.158Z,1.50
2022-09-06T01:56:38.855Z,1.33
2022-09-06T01:59:39.314Z,1.73
2022-09-06T02:02:13.067Z,1.40
2022-09-06T02:04:45.962Z,1.40
2022-09-06T02:07:21.953Z,1.40
2022-09-06T02:09:54.680Z,0.93
2022-09-06T02:12:25.752Z,1.27
2022-09-06T02:14:59.334Z,1.33
2022-09-06T02:17:31.907Z,1.53
2022-09-06T02:20:03.715Z,1.33
2022-09-06T02:22:36.663Z,1.13
2022-09-06T02:25:08.409Z,2.57
2022-09-06T02:27:38.168Z,2.33
2022-09-06T02:30:08.219Z,1.67
2022-09-06T02:32:40.850Z,1.80
2022-09-06T02:35:13.614Z,1.90
2022-09-06T02:37:42.637Z,2.13
2022-09-06T02:40:12.146Z,2.20
2022-09-06T02:42:42.127Z,1.70
2022-09-06T02:45:11.546Z,2.50
2022-09-06T02:47:39.580Z,2.17
2022-09-06T02:50:08.679Z,2.33
2022-09-06T02:52:37.230Z,1.87
2022-09-06T02:55:05.582Z,1.63
2022-09-06T02:57:33.601Z,1.77
2022-09-06T03:00:01.200Z,1.87
2022-09-06T03:02:30.400Z,1.83
2022-09-06T03:04:58.074Z,2.40
2022-09-06T03:07:25.806Z,1.20
2022-09-06T03:09:53.419Z,2.20
2022-09-06T03:12:21.482Z,2.83
2022-09-06T03:14:53.038Z,2.23
2022-09-06T03:17:22.703Z,2.07
2022-09-06T03:19:51.636Z,1.43
2022-09-06T03:22:19.870Z,1.87
2022-09-06T03:24:48.024Z,1.70
2022-09-06T03:27:15.966Z,2.30
2022-09-06T03:29:44.097Z,2.80
2022-09-06T03:32:11.747Z,3.93
2022-09-06T03:34:39.832Z,2.93
2022-09-06T03:37:08.785Z,3.33
2022-09-06T03:39:37.002Z,2.53
2022-09-06T03:42:04.903Z,3.37
2022-09-06T03:44:33.269Z,2.93
2022-09-06T03:47:00.962Z,2.63
2022-09-06T03:49:28.611Z,5.07
2022-09-06T03:51:56.495Z,3.67
2022-09-06T03:54:25.867Z,3.33
2022-09-06T03:56:53.487Z,3.00
2022-09-06T03:59:21.133Z,3.80
2022-09-06T04:01:48.741Z,2.80
2022-09-06T04:04:17.063Z,4.00
2022-09-06T04:06:44.687Z,3.10
2022-09-06T04:09:12.713Z,4.50
2022-09-06T04:11:44.942Z,3.63
2022-09-06T04:14:13.119Z,4.07
2022-09-06T04:16:40.869Z,4.17
2022-09-06T04:19:08.989Z,3.30
2022-09-06T04:21:36.629Z,3.90
2022-09-06T04:24:04.828Z,2.93
2022-09-06T04:26:32.499Z,2.97
2022-09-06T04:29:01.503Z,3.33
2022-09-06T04:31:29.189Z,3.80
2022-09-06T04:33:57.287Z,3.57
2022-09-06T04:36:24.920Z,3.70
2022-09-06T04:38:52.684Z,3.50
2022-09-06T04:41:21.074Z,3.13
2022-09-06T04:43:49.081Z,3.97
2022-09-06T04:46:21.510Z,4.13
2022-09-06T04:48:50.506Z,3.10
2022-09-06T04:51:18.830Z,2.80
2022-09-06T04:53:47.307Z,2.87
2022-09-06T04:56:17.789Z,3.03
2022-09-06T04:58:47.206Z,3.47
2022-09-06T05:01:15.203Z,3.83
2022-09-06T05:03:44.538Z,3.50
2022-09-06T05:06:16.309Z,2.70
2022-09-06T05:08:44.302Z,2.77
2022-09-06T05:11:12.388Z,2.87
2022-09-06T05:13:41.257Z,2.83
2022-09-06T05:16:10.353Z,3.73
2022-09-06T05:18:38.076Z,3.37
2022-09-06T05:21:07.650Z,3.20
2022-09-06T05:23:35.409Z,3.03
2022-09-06T05:26:03.382Z,3.10
2022-09-06T05:28:31.332Z,2.50
2022-09-06T05:31:07.261Z,2.33
2022-09-06T05:33:35.878Z,3.23
2022-09-06T05:36:03.993Z,2.97
2022-09-06T05:38:33.275Z,3.87
2022-09-06T05:41:01.144Z,3.90
2022-09-06T05:43:29.267Z,3.40
2022-09-06T05:45:56.942Z,2.83
2022-09-06T05:48:24.625Z,3.13
2022-09-06T05:51:00.831Z,3.47
2022-09-06T05:53:28.446Z,3.37
2022-09-06T05:55:57.406Z,2.53
2022-09-06T05:58:25.038Z,3.33
2022-09-06T06:00:52.685Z,3.07
2022-09-06T06:03:20.651Z,3.33
2022-09-06T06:05:48.609Z,3.53
2022-09-06T06:08:16.405Z,2.77
2022-09-06T06:10:44.006Z,2.33
2022-09-06T06:13:13.442Z,2.47
2022-09-06T06:15:41.112Z,2.73
2022-09-06T06:18:09.046Z,3.00
2022-09-06T06:20:36.641Z,3.70
2022-09-06T06:23:04.944Z,3.17
2022-09-06T06:25:32.552Z,2.93
2022-09-06T06:28:01.716Z,2.37
2022-09-06T06:30:30.675Z,3.13
2022-09-06T06:32:58.797Z,2.50
2022-09-06T06:35:26.527Z,4.37
2022-09-06T06:37:54.133Z,3.10
2022-09-06T06:40:22.081Z,4.33
2022-09-06T06:42:50.005Z,2.63
2022-09-06T06:45:18.658Z,3.17
2022-09-06T06:47:50.697Z,2.50
2022-09-06T06:50:18.403Z,2.70
2022-09-06T06:52:46.331Z,2.63
2022-09-06T06:55:13.946Z,3.40
2022-09-06T06:57:41.927Z,2.47
2022-09-06T07:00:11.158Z,2.40
2022-09-06T07:02:39.150Z,2.17
2022-09-06T07:07:57.069Z,2.70
2022-09-06T07:12:59.872Z,4.33
2022-09-06T07:15:27.872Z,2.70
2022-09-06T07:17:56.161Z,2.10
2022-09-06T07:20:26.310Z,2.20
2022-09-06T07:25:49.278Z,2.43
2022-09-06T07:28:16.926Z,2.20
2022-09-06T07:30:44.587Z,3.00
2022-09-06T07:33:12.533Z,2.40
2022-09-06T07:35:42.022Z,2.13
2022-09-06T07:38:10.054Z,3.03
2022-09-06T07:40:37.658Z,2.83
2022-09-06T07:43:05.786Z,2.47
2022-09-06T07:45:35.610Z,2.07
2022-09-06T07:48:03.685Z,2.23
2022-09-06T07:50:48.833Z,2.57
2022-09-06T07:53:26.285Z,2.40
2022-09-06T07:55:58.029Z,2.13
2022-09-06T07:58:26.117Z,2.37
2022-09-06T08:00:54.458Z,1.97
2022-09-06T08:03:22.335Z,2.90
2022-09-06T08:11:25.562Z,2.70
2022-09-06T08:13:55.609Z,2.47
2022-09-06T08:16:24.646Z,3.07
2022-09-06T08:18:53.320Z,2.03
2022-09-06T08:21:23.501Z,2.63
2022-09-06T08:23:55.042Z,1.57
2022-09-06T08:26:24.138Z,1.43
2022-09-06T08:28:55.780Z,3.03
2022-09-06T08:31:23.455Z,1.67
2022-09-06T08:33:52.894Z,1.23
2022-09-06T08:36:20.779Z,1.23
2022-09-06T08:38:49.195Z,1.50
2022-09-06T08:41:27.850Z,1.67
2022-09-06T08:46:55.299Z,0.80
2022-09-06T08:49:23.589Z,0.77
2022-09-06T08:52:05.617Z,1.93
2022-09-06T08:54:38.105Z,1.30
2022-09-06T08:57:16.303Z,1.10
2022-09-06T08:59:44.125Z,1.93
2022-09-06T09:02:14.783Z,1.10
2022-09-06T09:04:45.480Z,1.20
2022-09-06T09:07:28.361Z,0.70
2022-09-06T09:09:59.306Z,0.75
2022-09-06T09:12:32.793Z,0.75
2022-09-06T09:15:08.964Z,0.98
2022-09-06T09:17:37.583Z,0.50
2022-09-06T09:20:06.255Z,0.98
2022-09-06T09:22:34.143Z,0.80
2022-09-06T09:25:03.330Z,0.93
2022-09-06T09:27:34.110Z,0.70
2022-09-06T09:32:51.346Z,0.80
2022-09-06T09:35:25.226Z,1.48
2022-09-06T09:38:11.492Z,1.05
2022-09-06T09:40:41.873Z,0.70
2022-09-06T09:43:17.330Z,1.38
2022-09-06T09:45:45.823Z,1.17
2022-09-06T09:48:27.921Z,0.82
2022-09-06T09:50:56.649Z,1.15
2022-09-06T09:53:26.454Z,2.03
2022-09-06T09:55:58.433Z,0.68
2022-09-06T09:58:34.410Z,1.35
2022-09-06T10:01:16.840Z,1.08
2022-09-06T10:09:23.083Z,1.02
2022-09-06T10:11:56.040Z,1.70
2022-09-06T10:14:30.292Z,0.95
2022-09-06T10:16:58.778Z,1.05
2022-09-06T10:19:39.427Z,1.70
2022-09-06T10:22:21.734Z,1.15
2022-09-06T10:25:11.716Z,1.10
2022-09-06T10:28:01.637Z,1.23
2022-09-06T10:30:41.578Z,1.77
2022-09-06T10:33:25.265Z,2.03
2022-09-06T10:35:53.737Z,1.02
2022-09-06T10:38:33.180Z,1.20
2022-09-06T10:41:18.365Z,1.55
2022-09-06T10:43:52.173Z,3.08
2022-09-06T10:46:26.408Z,1.70
2022-09-06T10:48:54.430Z,2.20
2022-09-06T10:51:33.590Z,2.63
2022-09-06T10:54:07.750Z,2.45
2022-09-06T10:56:41.037Z,2.13
2022-09-06T11:02:13.185Z,1.20
2022-09-06T11:07:31.399Z,2.47
2022-09-06T11:10:01.771Z,1.92
2022-09-06T11:12:36.083Z,2.63
2022-09-06T11:15:06.065Z,1.60
2022-09-06T11:17:42.543Z,2.75
2022-09-06T11:20:16.349Z,2.28
2022-09-06T11:23:03.873Z,2.55
2022-09-06T11:25:57.299Z,1.45
2022-09-06T11:28:33.293Z,2.78
2022-09-06T11:31:01.440Z,3.45
2022-09-06T11:33:35.791Z,2.40
2022-09-06T11:36:20.372Z,4.70
2022-09-06T11:38:57.066Z,2.35
2022-09-06T11:41:29.833Z,1.80
2022-09-06T11:43:57.523Z,2.47
2022-09-06T11:46:58.866Z,1.65
2022-09-06T11:49:46.349Z,2.17
2022-09-06T11:53:00.254Z,1.77
2022-09-06T11:55:36.366Z,2.60
2022-09-06T11:58:10.353Z,2.20
2022-09-06T12:00:38.006Z,2.45
2022-09-06T12:06:19.279Z,2.20
2022-09-06T12:08:48.698Z,3.53
2022-09-06T12:11:44.481Z,2.65
2022-09-06T12:14:31.170Z,4.55
2022-09-06T12:17:46.652Z,2.30
2022-09-06T12:20:52.885Z,3.33
2022-09-06T12:23:43.644Z,2.60
2022-09-06T12:26:12.325Z,3.15
2022-09-06T12:28:47.407Z,2.67
2022-09-06T12:31:25.525Z,2.22
2022-09-06T12:33:54.805Z,2.58
2022-09-06T12:36:29.733Z,3.08
2022-09-06T12:39:01.421Z,2.47
2022-09-06T12:41:32.839Z,2.33
2022-09-06T12:44:03.115Z,2.08
2022-09-06T12:46:32.284Z,2.15
2022-09-06T12:49:01.945Z,2.97
2022-09-06T12:51:31.185Z,3.67
2022-09-06T12:54:02.301Z,1.67
2022-09-06T12:56:32.785Z,2.67
2022-09-06T13:02:09.201Z,3.28
2022-09-06T13:04:43.034Z,1.85
2022-09-06T13:07:14.127Z,3.03
2022-09-06T13:09:46.908Z,3.00
2022-09-06T13:12:22.765Z,3.17
2022-09-06T13:14:53.789Z,3.50
2022-09-06T13:17:26.650Z,2.45
2022-09-06T13:19:55.020Z,2.58
2022-09-06T13:22:41.077Z,3.20
2022-09-06T13:25:20.498Z,2.58
2022-09-06T13:27:51.178Z,3.00
2022-09-06T13:30:32.329Z,3.55
2022-09-06T13:33:00.397Z,2.40
2022-09-06T13:35:31.042Z,2.22
2022-09-06T13:38:30.932Z,2.70
2022-09-06T13:41:16.747Z,3.50
2022-09-06T13:43:47.864Z,3.15
2022-09-06T13:46:16.081Z,2.08
2022-09-06T13:48:44.968Z,1.77
2022-09-06T13:51:13.014Z,3.38
2022-09-06T13:53:41.387Z,2.97
2022-09-06T13:56:11.933Z,2.30
2022-09-06T13:58:39.786Z,4.45
2022-09-06T14:01:08.633Z,2.30
2022-09-06T14:03:37.814Z,2.40
2022-09-06T14:06:05.645Z,1.85
2022-09-06T14:08:49.735Z,2.55
2022-09-06T14:11:23.677Z,3.30
2022-09-06T14:13:51.638Z,2.13
2022-09-06T14:16:19.378Z,2.47
2022-09-06T14:18:47.677Z,2.85
2022-09-06T14:21:15.294Z,3.78
2022-09-06T14:23:43.090Z,1.67
2022-09-06T14:26:11.973Z,2.58
2022-09-06T14:28:41.630Z,2.42
2022-09-06T14:31:14.001Z,1.88
2022-09-06T14:33:42.348Z,2.53
2022-09-06T14:36:11.933Z,2.35
2022-09-06T14:38:41.800Z,2.22
2022-09-06T14:41:10.341Z,2.95
2022-09-06T14:43:38.913Z,2.38
2022-09-06T14:46:09.552Z,2.10
2022-09-06T14:48:42.003Z,2.10
2022-09-06T14:51:11.423Z,2.97
2022-09-06T14:53:41.295Z,2.55
2022-09-06T14:56:09.672Z,3.25
2022-09-06T14:58:39.150Z,4.72
2022-09-06T15:01:11.654Z,3.08
2022-09-06T15:03:40.615Z,2.72
2022-09-06T15:06:09.424Z,3.53
2022-09-06T15:08:37.931Z,2.58
2022-09-06T15:11:08.123Z,2.63
2022-09-06T15:13:37.842Z,2.92
2022-09-06T15:16:05.923Z,2.47
2022-09-06T15:18:35.920Z,3.50
2022-09-06T15:21:10.220Z,3.15
2022-09-06T15:23:39.212Z,2.72
2022-09-06T15:26:08.334Z,3.35
2022-09-06T15:28:37.109Z,1.95
2022-09-06T15:31:05.552Z,3.60
2022-09-06T15:33:36.014Z,3.70
2022-09-06T15:36:06.331Z,2.42
2022-09-06T15:38:34.333Z,2.28
2022-09-06T15:41:08.211Z,3.55
2022-09-06T15:43:37.750Z,3.75
2022-09-06T15:46:05.645Z,3.28
2022-09-06T15:48:43.412Z,2.90
2022-09-06T15:51:12.832Z,4.13
2022-09-06T15:53:41.082Z,3.10
2022-09-06T15:56:09.109Z,2.58
2022-09-06T15:58:37.615Z,4.15
2022-09-06T16:01:08.053Z,4.38
2022-09-06T16:03:41.910Z,2.85
2022-09-06T16:06:28.012Z,2.83
2022-09-06T16:08:59.340Z,2.65
2022-09-06T16:11:28.184Z,2.90
2022-09-06T16:13:56.195Z,4.38
2022-09-06T16:16:23.939Z,2.50
2022-09-06T16:18:53.198Z,1.63
2022-09-06T16:21:23.968Z,1.92
2022-09-06T16:23:53.753Z,3.83
2022-09-06T16:26:25.275Z,3.25
2022-09-06T16:28:53.942Z,2.00
2022-09-06T16:31:23.010Z,3.42
2022-09-06T16:33:53.623Z,1.88
2022-09-06T16:36:23.523Z,2.42
2022-09-06T16:38:51.426Z,1.52
2022-09-06T16:41:21.813Z,3.63
2022-09-06T16:43:50.004Z,1.98
2022-09-06T16:46:18.162Z,2.67
2022-09-06T16:48:51.864Z,3.35
2022-09-06T16:51:23.285Z,2.17
2022-09-06T16:53:51.963Z,2.80
2022-09-06T16:56:22.472Z,2.10
2022-09-06T16:58:52.243Z,1.80
2022-09-06T17:01:20.177Z,1.52
2022-09-06T17:03:48.462Z,1.90
2022-09-06T17:06:17.525Z,2.75
2022-09-06T17:08:47.247Z,2.70
2022-09-06T17:11:16.967Z,2.92
2022-09-06T17:13:46.334Z,2.15
2022-09-06T17:16:31.969Z,2.17
2022-09-06T17:19:01.227Z,2.88
2022-09-06T17:21:30.273Z,2.65
2022-09-06T17:24:05.613Z,2.45
2022-09-06T17:26:35.777Z,2.50
2022-09-06T17:29:04.012Z,2.53
2022-09-06T17:31:31.730Z,2.42
2022-09-06T17:33:59.563Z,2.45
2022-09-06T17:36:30.301Z,1.83
2022-09-06T17:39:03.174Z,1.73
2022-09-06T17:41:36.506Z,2.72
2022-09-06T17:44:06.093Z,2.13
2022-09-06T17:46:34.120Z,2.25
2022-09-06T17:49:02.026Z,2.60
2022-09-06T17:51:30.405Z,2.92
2022-09-06T17:53:58.521Z,1.83
2022-09-06T17:56:27.897Z,2.20
2022-09-06T17:58:57.775Z,2.27
2022-09-06T18:01:29.592Z,2.45
2022-09-06T18:03:58.103Z,2.10
2022-09-06T18:06:27.689Z,2.27
2022-09-06T18:08:57.420Z,1.75
2022-09-06T18:11:28.987Z,2.00
2022-09-06T18:13:58.601Z,2.22
2022-09-06T18:16:28.302Z,2.20
2022-09-06T18:18:58.249Z,3.03
2022-09-06T18:21:27.000Z,1.90
2022-09-06T18:23:55.497Z,2.63
2022-09-06T18:26:23.630Z,2.53
2022-09-06T18:28:53.853Z,1.47
2022-09-06T18:31:23.984Z,2.43
2022-09-06T18:33:52.312Z,2.07
2022-09-06T18:36:21.245Z,2.87
2022-09-06T18:38:48.890Z,2.80
2022-09-06T18:41:31.400Z,1.90
2022-09-06T18:44:03.101Z,2.80
2022-09-06T18:46:31.834Z,1.63
2022-09-06T18:49:00.090Z,2.43
2022-09-06T18:51:28.679Z,2.87
2022-09-06T18:53:57.368Z,2.00
2022-09-06T18:56:26.934Z,2.53
2022-09-06T18:58:56.482Z,4.23
2022-09-06T19:01:26.924Z,4.67
2022-09-06T19:03:54.878Z,4.50
2022-09-06T19:06:23.281Z,2.80
2022-09-06T19:08:52.491Z,2.93
2022-09-06T19:11:22.846Z,3.77
2022-09-06T19:13:52.252Z,2.50
2022-09-06T19:16:21.201Z,4.03
2022-09-06T19:18:50.911Z,3.10
2022-09-06T19:21:22.105Z,2.73
2022-09-06T19:23:57.793Z,3.43
2022-09-06T19:26:27.402Z,2.67
2022-09-06T19:28:57.833Z,2.37
2022-09-06T19:31:28.014Z,3.53
2022-09-06T19:33:57.342Z,3.37
2022-09-06T19:36:27.157Z,2.70
2022-09-06T19:39:03.689Z,3.00
2022-09-06T19:41:33.135Z,1.70
2022-09-06T19:44:01.658Z,2.67
2022-09-06T19:46:29.584Z,2.37
2022-09-06T19:48:58.861Z,3.00
2022-09-06T19:51:26.654Z,2.33
2022-09-06T19:53:57.542Z,2.30
2022-09-06T19:56:26.854Z,2.60
2022-09-06T19:58:56.274Z,1.77
2022-09-06T20:01:25.174Z,2.10
2022-09-06T20:03:53.409Z,2.80
2022-09-06T20:06:23.040Z,3.83
2022-09-06T20:08:52.183Z,2.23
2022-09-06T20:11:21.945Z,2.40
2022-09-06T20:13:49.666Z,2.10
2022-09-06T20:16:20.635Z,2.87
2022-09-06T20:18:48.958Z,4.23
2022-09-06T20:21:18.675Z,2.70
2022-09-06T20:23:51.487Z,2.53
2022-09-06T20:26:20.493Z,1.87
2022-09-06T20:28:48.834Z,2.03
2022-09-06T20:31:19.871Z,2.60
2022-09-06T20:33:49.889Z,2.20
2022-09-06T20:36:18.678Z,3.73
2022-09-06T20:38:47.758Z,2.77
2022-09-06T20:41:19.458Z,2.03
2022-09-06T20:43:52.345Z,2.33
2022-09-06T20:46:22.754Z,2.67
2022-09-06T20:48:51.736Z,3.27
2022-09-06T20:51:21.454Z,2.77
2022-09-06T20:53:52.758Z,3.43
2022-09-06T20:56:24.006Z,3.63
2022-09-06T20:58:53.866Z,3.93
2022-09-06T21:01:23.500Z,2.77
2022-09-06T21:03:52.595Z,3.07
2022-09-06T21:06:21.363Z,2.80
2022-09-06T21:08:49.646Z,2.63
2022-09-06T21:11:18.487Z,2.70
2022-09-06T21:13:51.317Z,3.10
2022-09-06T21:16:24.370Z,2.17
2022-09-06T21:18:53.210Z,2.47
2022-09-06T21:21:21.472Z,2.47
2022-09-06T21:23:49.713Z,3.37
2022-09-06T21:26:18.697Z,2.93
2022-09-06T21:28:47.442Z,3.10
2022-09-06T21:31:19.186Z,4.07
2022-09-06T21:33:48.790Z,3.27
2022-09-06T21:36:18.545Z,4.20
2022-09-06T21:38:47.335Z,3.33
2022-09-06T21:41:18.206Z,3.57
2022-09-06T21:43:46.837Z,3.03
2022-09-06T21:46:19.550Z,5.03
2022-09-06T21:48:48.863Z,4.30
2022-09-06T21:51:19.619Z,4.37
2022-09-06T21:53:49.008Z,4.20
2022-09-06T21:56:19.832Z,3.73
2022-09-06T21:58:50.773Z,3.97
2022-09-06T22:01:20.504Z,4.27
2022-09-06T22:03:48.521Z,4.57
2022-09-06T22:06:18.983Z,4.77
2022-09-06T22:08:47.277Z,3.90
2022-09-06T22:11:17.138Z,2.80
2022-09-06T22:13:46.082Z,4.03
2022-09-06T22:16:16.264Z,3.50
2022-09-06T22:18:46.195Z,3.97
2022-09-06T22:21:18.757Z,4.37
2022-09-06T22:23:50.965Z,3.83
2022-09-06T22:26:20.138Z,5.47
2022-09-06T22:28:48.078Z,3.60
2022-09-06T22:31:16.100Z,3.47
2022-09-06T22:33:45.105Z,3.57
2022-09-06T22:36:12.878Z,4.03
2022-09-06T22:38:40.969Z,4.43
2022-09-06T22:41:09.683Z,4.07
2022-09-06T22:43:37.566Z,4.23
2022-09-06T22:46:07.228Z,3.30
2022-09-06T22:48:35.928Z,4.27
2022-09-06T22:51:06.477Z,5.13
2022-09-06T22:53:35.007Z,4.10
2022-09-06T22:56:04.023Z,4.07
2022-09-06T22:58:32.025Z,3.40
2022-09-06T23:01:07.344Z,3.57
2022-09-06T23:03:35.261Z,4.40
2022-09-06T23:06:03.630Z,4.37
2022-09-06T23:08:34.058Z,5.10
2022-09-06T23:11:06.849Z,3.70
2022-09-06T23:13:35.849Z,6.70
2022-09-06T23:16:05.057Z,3.63
2022-09-06T23:18:33.278Z,3.97
2022-09-06T23:21:05.669Z,4.50
2022-09-06T23:23:35.254Z,4.50
2022-09-06T23:26:08.302Z,4.57
2022-09-06T23:28:36.393Z,4.83
2022-09-06T23:31:05.679Z,3.23
2022-09-06T23:33:35.025Z,3.37
2022-09-06T23:36:03.831Z,4.20
2022-09-06T23:38:34.850Z,3.77
2022-09-06T23:41:03.637Z,3.87
2022-09-06T23:43:31.514Z,2.67
2022-09-06T23:45:59.948Z,4.00
2022-09-06T23:48:27.934Z,4.63
2022-09-06T23:50:55.639Z,4.83
2022-09-06T23:53:23.869Z,3.87
2022-09-06T23:55:52.865Z,3.90
2022-09-06T23:58:21.152Z,3.50
